createdAt,value
2023-05-05T00:01:29.272Z,51.21
2023-05-05T00:03:56.000Z,50.36
2023-05-05T00:06:23.034Z,49.67
2023-05-05T00:08:49.668Z,49.83
2023-05-05T00:11:16.354Z,49.85
2023-05-05T00:13:43.016Z,50.50
2023-05-05T00:16:09.729Z,50.11
2023-05-05T00:18:36.438Z,49.93
2023-05-05T00:21:04.409Z,49.94
2023-05-05T00:23:31.024Z,50.76
2023-05-05T00:25:57.648Z,51.52
2023-05-05T00:28:24.268Z,52.32
2023-05-05T00:30:51.231Z,51.94
2023-05-05T00:33:17.863Z,51.60
2023-05-05T00:35:44.471Z,51.23
2023-05-05T00:38:11.138Z,51.63
2023-05-05T00:40:38.288Z,51.75
2023-05-05T00:43:05.360Z,51.07
2023-05-05T00:45:32.159Z,51.74
2023-05-05T00:48:00.205Z,52.07
2023-05-05T00:50:29.343Z,52.10
2023-05-05T00:53:03.971Z,52.01
2023-05-05T00:55:31.448Z,51.86
2023-05-05T00:57:59.049Z,51.69
2023-05-05T01:00:26.487Z,51.91
2023-05-05T01:02:53.539Z,51.06
2023-05-05T01:05:22.449Z,51.25
2023-05-05T01:08:13.697Z,50.97
2023-05-05T01:10:53.144Z,51.52
2023-05-05T01:13:45.298Z,51.88
2023-05-05T01:16:27.557Z,51.77
2023-05-05T01:19:31.295Z,51.99
2023-05-05T01:22:02.420Z,52.20
2023-05-05T01:24:44.226Z,52.64
2023-05-05T01:27:27.315Z,52.80
2023-05-05T01:30:31.284Z,52.09
2023-05-05T01:33:04.145Z,51.38
2023-05-05T01:35:42.517Z,51.42
2023-05-05T01:38:17.519Z,51.38
2023-05-05T01:40:49.116Z,52.08
2023-05-05T01:43:19.126Z,52.05
2023-05-05T01:45:48.721Z,53.01
2023-05-05T01:48:18.367Z,53.98
2023-05-05T01:50:47.164Z,55.64
2023-05-05T01:53:17.616Z,56.02
2023-05-05T01:55:46.910Z,54.84
2023-05-05T01:58:14.983Z,55.34
2023-05-05T02:00:42.816Z,54.76
2023-05-05T02:03:12.213Z,54.69
2023-05-05T02:05:40.198Z,53.47
2023-05-05T02:08:09.026Z,53.25
2023-05-05T02:10:38.152Z,52.93
2023-05-05T02:13:05.798Z,53.35
2023-05-05T02:15:34.145Z,53.67
2023-05-05T02:18:02.107Z,53.35
2023-05-05T02:20:31.207Z,52.79
2023-05-05T02:22:59.263Z,52.46
2023-05-05T02:25:38.668Z,52.87
2023-05-05T02:28:07.332Z,52.63
2023-05-05T02:30:36.566Z,52.89
2023-05-05T02:33:11.774Z,52.69
2023-05-05T02:35:41.310Z,52.86
2023-05-05T02:38:17.336Z,52.74
2023-05-05T02:40:46.954Z,54.72
2023-05-05T02:43:18.265Z,53.60
2023-05-05T02:45:45.292Z,53.46
2023-05-05T02:48:13.146Z,54.91
2023-05-05T02:50:40.121Z,54.38
2023-05-05T02:53:06.913Z,54.88
2023-05-05T02:55:45.569Z,53.67
2023-05-05T02:58:24.478Z,56.29
2023-05-05T03:01:01.995Z,55.25
2023-05-05T03:03:44.866Z,55.09
2023-05-05T03:06:16.527Z,55.13
2023-05-05T03:09:04.989Z,55.33
2023-05-05T03:11:49.764Z,54.12
2023-05-05T03:14:19.887Z,53.51
2023-05-05T03:16:47.671Z,54.37
2023-05-05T03:19:19.838Z,54.69
2023-05-05T03:21:46.528Z,54.94
2023-05-05T03:24:17.139Z,54.51
2023-05-05T03:26:45.923Z,54.99
2023-05-05T03:29:16.081Z,55.54
2023-05-05T03:31:42.855Z,56.52
2023-05-05T03:34:09.675Z,55.55
2023-05-05T03:36:36.475Z,54.84
2023-05-05T03:39:03.739Z,55.58
2023-05-05T03:41:30.463Z,56.22
2023-05-05T03:43:57.141Z,55.70
2023-05-05T03:46:23.788Z,55.72
2023-05-05T03:48:51.568Z,55.55
2023-05-05T03:51:18.347Z,54.94
2023-05-05T03:53:45.097Z,55.47
2023-05-05T03:56:11.753Z,55.20
2023-05-05T03:58:38.363Z,55.18
2023-05-05T04:01:05.155Z,55.09
2023-05-05T04:03:31.885Z,55.80
2023-05-05T04:05:58.602Z,55.51
2023-05-05T04:08:25.268Z,55.25
2023-05-05T04:10:51.859Z,55.40
2023-05-05T04:13:18.608Z,55.26
2023-05-05T04:15:48.478Z,55.51
2023-05-05T04:18:15.316Z,55.34
2023-05-05T04:20:42.020Z,55.89
2023-05-05T04:23:08.764Z,55.88
2023-05-05T04:25:35.494Z,56.63
2023-05-05T04:28:02.132Z,56.90
2023-05-05T04:30:28.836Z,57.84
2023-05-05T04:32:55.513Z,57.22
2023-05-05T04:35:22.468Z,58.05
2023-05-05T04:37:49.104Z,58.92
2023-05-05T04:40:15.718Z,57.58
2023-05-05T04:42:42.327Z,57.15
2023-05-05T04:45:09.258Z,56.93
2023-05-05T04:47:39.529Z,57.55
2023-05-05T04:50:07.346Z,57.05
2023-05-05T04:52:34.297Z,56.67
2023-05-05T04:55:01.301Z,56.88
2023-05-05T04:57:29.508Z,56.78
2023-05-05T04:59:56.203Z,56.58
2023-05-05T05:02:22.896Z,56.57
2023-05-05T05:04:49.624Z,56.63
2023-05-05T05:07:16.241Z,56.64
2023-05-05T05:09:42.860Z,56.61
2023-05-05T05:12:09.850Z,56.86
2023-05-05T05:14:40.128Z,56.61
2023-05-05T05:17:07.341Z,56.82
2023-05-05T05:19:34.310Z,56.57
2023-05-05T05:22:00.934Z,56.85
2023-05-05T05:24:27.615Z,56.53
2023-05-05T05:26:54.245Z,56.49
2023-05-05T05:29:20.875Z,56.80
2023-05-05T05:31:47.547Z,58.22
2023-05-05T05:34:14.212Z,57.91
2023-05-05T05:36:40.831Z,58.87
2023-05-05T05:39:07.487Z,60.02
2023-05-05T05:41:34.200Z,60.46
2023-05-05T05:44:00.857Z,60.07
2023-05-05T05:46:27.544Z,59.66
2023-05-05T05:48:54.254Z,59.11
2023-05-05T05:51:20.859Z,59.42
2023-05-05T05:53:47.494Z,59.91
2023-05-05T05:56:14.162Z,60.40
2023-05-05T05:58:40.799Z,59.43
2023-05-05T06:01:07.512Z,58.62
2023-05-05T06:03:35.355Z,58.23
2023-05-05T06:06:02.190Z,57.61
2023-05-05T06:08:28.829Z,57.53
2023-05-05T06:10:55.472Z,59.07
2023-05-05T06:13:22.096Z,58.51
2023-05-05T06:15:48.875Z,58.15
2023-05-05T06:18:15.564Z,59.67
2023-05-05T06:20:43.519Z,58.76
2023-05-05T06:23:10.327Z,58.85
2023-05-05T06:25:37.241Z,59.09
2023-05-05T06:28:05.715Z,58.24
2023-05-05T06:30:32.888Z,58.70
2023-05-05T06:32:59.890Z,60.42
2023-05-05T06:35:26.772Z,61.25
2023-05-05T06:37:53.456Z,59.61
2023-05-05T06:40:20.155Z,58.34
2023-05-05T06:42:46.844Z,58.50
2023-05-05T06:45:13.548Z,57.56
2023-05-05T06:47:40.212Z,56.95
2023-05-05T06:50:08.987Z,55.92
2023-05-05T06:52:36.134Z,57.47
2023-05-05T06:55:03.859Z,55.49
2023-05-05T06:57:30.562Z,54.37
2023-05-05T06:59:57.235Z,54.54
2023-05-05T07:02:25.980Z,54.52
2023-05-05T07:04:55.461Z,54.64
2023-05-05T07:07:22.318Z,55.18
2023-05-05T07:09:49.092Z,54.02
2023-05-05T07:12:15.817Z,54.70
2023-05-05T07:14:42.495Z,53.88
2023-05-05T07:17:09.086Z,52.80
2023-05-05T07:19:35.701Z,52.05
2023-05-05T07:22:02.308Z,51.34
2023-05-05T07:24:29.055Z,52.26
2023-05-05T07:26:55.790Z,51.06
2023-05-05T07:29:22.387Z,51.70
2023-05-05T07:31:49.034Z,51.22
2023-05-05T07:34:15.733Z,50.97
2023-05-05T07:36:42.388Z,52.05
2023-05-05T07:39:09.110Z,52.87
2023-05-05T07:41:35.846Z,51.84
2023-05-05T07:44:02.506Z,50.15
2023-05-05T07:46:29.137Z,50.98
2023-05-05T07:48:55.904Z,49.27
2023-05-05T07:51:22.646Z,49.44
2023-05-05T07:53:49.293Z,48.69
2023-05-05T07:56:15.974Z,47.84
2023-05-05T07:58:42.668Z,48.23
2023-05-05T08:01:11.138Z,47.14
2023-05-05T08:03:37.971Z,47.06
2023-05-05T08:06:12.002Z,49.29
2023-05-05T08:08:38.651Z,47.70
2023-05-05T08:11:06.682Z,48.63
2023-05-05T08:13:34.526Z,45.65
2023-05-05T08:16:01.318Z,46.71
2023-05-05T08:18:27.985Z,47.64
2023-05-05T08:20:54.837Z,46.21
2023-05-05T08:23:21.655Z,46.27
2023-05-05T08:25:48.318Z,46.90
2023-05-05T08:28:14.966Z,46.72
2023-05-05T08:30:42.793Z,46.83
2023-05-05T08:33:09.521Z,47.65
2023-05-05T08:35:36.166Z,49.25
2023-05-05T08:38:02.901Z,49.86
2023-05-05T08:40:33.892Z,49.67
2023-05-05T08:43:01.468Z,51.12
2023-05-05T08:45:29.210Z,50.23
2023-05-05T08:48:01.449Z,50.54
2023-05-05T08:50:29.515Z,50.10
2023-05-05T08:53:12.836Z,49.40
2023-05-05T08:55:49.896Z,49.62
2023-05-05T08:58:18.279Z,50.41
2023-05-05T09:00:47.873Z,48.54
2023-05-05T09:03:15.907Z,49.16
2023-05-05T09:05:44.113Z,49.56
2023-05-05T09:08:11.643Z,47.80
2023-05-05T09:10:41.599Z,48.93
2023-05-05T09:13:08.561Z,47.60
2023-05-05T09:15:35.405Z,46.23
2023-05-05T09:18:02.505Z,48.40
2023-05-05T09:20:37.890Z,47.75
2023-05-05T09:23:18.833Z,46.19
2023-05-05T09:25:48.188Z,47.55
2023-05-05T09:28:17.722Z,46.31
2023-05-05T09:30:47.624Z,45.46
2023-05-05T09:33:14.409Z,45.42
2023-05-05T09:35:55.077Z,45.83
2023-05-05T09:38:23.709Z,45.91
2023-05-05T09:40:52.034Z,43.69
2023-05-05T09:43:21.544Z,42.17
2023-05-05T09:45:51.714Z,40.81
2023-05-05T09:48:30.188Z,39.95
2023-05-05T09:50:58.222Z,40.15
2023-05-05T09:53:26.046Z,41.61
2023-05-05T09:56:01.011Z,39.85
2023-05-05T09:58:29.999Z,39.39
2023-05-05T10:00:57.976Z,41.91
2023-05-05T10:03:25.159Z,38.79
2023-05-05T10:05:56.890Z,38.36
2023-05-05T10:08:26.424Z,37.85
2023-05-05T10:11:07.117Z,38.48
2023-05-05T10:13:39.511Z,36.94
2023-05-05T10:16:08.420Z,37.48
2023-05-05T10:18:35.952Z,38.97
2023-05-05T10:21:04.167Z,37.17
2023-05-05T10:24:09.412Z,37.50
2023-05-05T10:26:42.428Z,38.10
2023-05-05T10:29:17.678Z,39.41
2023-05-05T10:31:52.853Z,37.42
2023-05-05T10:34:41.043Z,37.44
2023-05-05T10:37:07.836Z,37.53
2023-05-05T10:39:36.781Z,39.69
2023-05-05T10:42:03.550Z,38.31
2023-05-05T10:44:33.200Z,38.89
2023-05-05T10:47:01.909Z,40.13
2023-05-05T10:49:57.330Z,38.91
2023-05-05T10:52:31.167Z,38.75
2023-05-05T10:55:16.746Z,36.46
2023-05-05T10:57:45.862Z,38.50
2023-05-05T11:00:40.501Z,37.45
2023-05-05T11:03:16.649Z,35.33
2023-05-05T11:06:08.262Z,35.41
2023-05-05T11:08:36.705Z,36.00
2023-05-05T11:11:03.836Z,33.99
2023-05-05T11:13:31.224Z,35.12
2023-05-05T11:16:00.115Z,36.05
2023-05-05T11:18:39.798Z,34.53
2023-05-05T11:21:17.834Z,38.05
2023-05-05T11:23:46.292Z,38.28
2023-05-05T11:26:14.379Z,38.87
2023-05-05T11:29:10.204Z,38.06
2023-05-05T11:31:36.902Z,37.67
2023-05-05T11:34:29.044Z,37.00
2023-05-05T11:37:07.807Z,35.67
2023-05-05T11:40:16.702Z,34.95
2023-05-05T11:42:43.337Z,34.95
2023-05-05T11:45:24.574Z,36.89
2023-05-05T11:47:51.265Z,34.25
2023-05-05T11:50:23.160Z,34.90
2023-05-05T11:52:49.982Z,35.68
2023-05-05T11:55:20.277Z,33.14
2023-05-05T11:57:46.913Z,35.86
2023-05-05T12:00:14.078Z,36.03
2023-05-05T12:02:40.770Z,34.02
2023-05-05T12:05:08.058Z,33.92
2023-05-05T12:07:34.685Z,34.79
2023-05-05T12:10:01.740Z,33.75
2023-05-05T12:12:37.008Z,34.66
2023-05-05T12:15:04.604Z,32.64
2023-05-05T12:17:39.883Z,32.45
2023-05-05T12:20:07.668Z,31.88
2023-05-05T12:22:34.796Z,32.06
2023-05-05T12:25:05.121Z,31.51
2023-05-05T12:27:31.991Z,33.01
2023-05-05T12:30:12.253Z,33.48
2023-05-05T12:32:39.038Z,35.14
2023-05-05T12:35:07.861Z,33.93
2023-05-05T12:37:35.075Z,33.12
2023-05-05T12:40:01.711Z,32.62
2023-05-05T12:42:28.382Z,33.43
2023-05-05T12:44:55.028Z,33.75
2023-05-05T12:47:32.653Z,33.91
2023-05-05T12:50:00.368Z,31.98
2023-05-05T12:52:42.421Z,32.46
2023-05-05T12:55:10.482Z,32.93
2023-05-05T12:57:37.456Z,33.62
2023-05-05T13:00:18.104Z,31.80
2023-05-05T13:02:44.893Z,31.91
2023-05-05T13:05:12.008Z,31.79
2023-05-05T13:07:50.790Z,32.07
2023-05-05T13:10:17.451Z,32.42
2023-05-05T13:12:44.108Z,32.58
2023-05-05T13:15:11.504Z,32.67
2023-05-05T13:17:38.193Z,31.85
2023-05-05T13:20:06.649Z,32.88
2023-05-05T13:22:33.274Z,33.16
2023-05-05T13:24:59.887Z,30.76
2023-05-05T13:27:27.140Z,31.69
2023-05-05T13:29:53.753Z,32.33
2023-05-05T13:32:20.386Z,33.53
2023-05-05T13:34:47.039Z,32.27
2023-05-05T13:37:13.748Z,32.48
2023-05-05T13:39:40.477Z,32.96
2023-05-05T13:42:07.285Z,33.59
2023-05-05T13:44:35.310Z,32.84
2023-05-05T13:47:01.990Z,31.45
2023-05-05T13:49:28.673Z,30.96
2023-05-05T13:51:56.346Z,31.26
2023-05-05T13:54:23.070Z,31.37
2023-05-05T13:56:49.704Z,32.45
2023-05-05T13:59:16.319Z,31.50
2023-05-05T14:01:42.996Z,31.89
2023-05-05T14:04:09.686Z,30.28
2023-05-05T14:06:36.460Z,30.18
2023-05-05T14:09:06.114Z,29.77
2023-05-05T14:11:33.061Z,29.50
2023-05-05T14:13:59.692Z,30.20
2023-05-05T14:16:26.425Z,30.87
2023-05-05T14:18:53.161Z,31.53
2023-05-05T14:21:19.796Z,31.31
2023-05-05T14:23:46.545Z,31.78
2023-05-05T14:26:13.245Z,33.08
2023-05-05T14:28:39.898Z,32.99
2023-05-05T14:31:06.528Z,30.68
2023-05-05T14:33:33.155Z,29.44
2023-05-05T14:35:59.979Z,29.49
2023-05-05T14:38:26.695Z,29.45
2023-05-05T14:40:53.372Z,30.93
2023-05-05T14:43:20.771Z,30.34
2023-05-05T14:45:47.519Z,30.84
2023-05-05T14:48:14.178Z,32.41
2023-05-05T14:50:42.486Z,31.90
2023-05-05T14:53:09.123Z,32.86
2023-05-05T14:55:35.872Z,34.48
2023-05-05T14:58:02.480Z,33.86
2023-05-05T15:00:29.138Z,34.65
2023-05-05T15:02:55.797Z,34.00
2023-05-05T15:05:22.444Z,34.70
2023-05-05T15:07:49.097Z,34.29
2023-05-05T15:10:15.828Z,33.68
2023-05-05T15:12:43.098Z,35.04
2023-05-05T15:15:10.794Z,34.35
2023-05-05T15:17:39.013Z,34.21
2023-05-05T15:20:06.809Z,35.37
2023-05-05T15:22:33.932Z,35.42
2023-05-05T15:25:01.279Z,35.15
2023-05-05T15:27:28.078Z,34.24
2023-05-05T15:29:55.323Z,36.28
2023-05-05T15:32:22.115Z,36.15
2023-05-05T15:34:50.352Z,36.37
2023-05-05T15:37:17.290Z,35.74
2023-05-05T15:39:44.014Z,35.62
2023-05-05T15:42:10.722Z,35.90
2023-05-05T15:44:37.627Z,35.54
2023-05-05T15:47:05.083Z,36.39
2023-05-05T15:49:31.810Z,36.25
2023-05-05T15:51:58.496Z,37.24
2023-05-05T15:54:25.184Z,37.06
2023-05-05T15:56:51.803Z,36.75
2023-05-05T15:59:19.256Z,36.26
2023-05-05T16:01:46.441Z,37.23
2023-05-05T16:04:13.233Z,37.78
2023-05-05T16:06:39.870Z,37.60
2023-05-05T16:09:06.532Z,37.69
2023-05-05T16:11:33.229Z,36.83
2023-05-05T16:13:59.821Z,37.25
2023-05-05T16:16:26.457Z,37.63
2023-05-05T16:18:53.125Z,38.00
2023-05-05T16:21:19.781Z,37.44
2023-05-05T16:23:46.684Z,37.69
2023-05-05T16:26:13.274Z,37.70
2023-05-05T16:28:39.886Z,37.72
2023-05-05T16:31:06.517Z,38.43
2023-05-05T16:33:33.139Z,38.08
2023-05-05T16:35:59.801Z,37.89
2023-05-05T16:38:26.409Z,38.01
2023-05-05T16:40:53.028Z,38.36
2023-05-05T16:43:19.741Z,38.24
2023-05-05T16:45:46.652Z,38.98
2023-05-05T16:48:14.752Z,38.31
2023-05-05T16:50:41.529Z,38.51
2023-05-05T16:53:09.220Z,38.74
2023-05-05T16:55:36.955Z,38.17
2023-05-05T16:58:04.806Z,38.82
2023-05-05T17:00:31.487Z,39.08
2023-05-05T17:02:58.253Z,38.28
2023-05-05T17:05:24.936Z,39.10
2023-05-05T17:07:52.240Z,38.56
2023-05-05T17:10:18.900Z,38.95
2023-05-05T17:12:45.804Z,39.00
2023-05-05T17:15:12.478Z,38.61
2023-05-05T17:17:40.550Z,38.92
2023-05-05T17:20:09.398Z,38.30
2023-05-05T17:22:36.331Z,40.04
2023-05-05T17:25:03.324Z,39.08
2023-05-05T17:27:29.935Z,38.48
2023-05-05T17:29:56.613Z,39.05
2023-05-05T17:32:23.391Z,39.30
2023-05-05T17:34:50.063Z,38.84
2023-05-05T17:37:16.684Z,40.00
2023-05-05T17:39:43.325Z,39.60
2023-05-05T17:42:09.969Z,39.00
2023-05-05T17:44:36.848Z,40.36
2023-05-05T17:47:04.041Z,39.62
2023-05-05T17:49:30.803Z,39.73
2023-05-05T17:51:57.404Z,39.69
2023-05-05T17:54:24.058Z,40.30
2023-05-05T17:56:50.689Z,39.03
2023-05-05T17:59:17.548Z,40.10
2023-05-05T18:01:44.358Z,39.86
2023-05-05T18:04:11.041Z,39.59
2023-05-05T18:06:37.711Z,39.77
2023-05-05T18:09:04.677Z,40.49
2023-05-05T18:11:32.117Z,40.17
2023-05-05T18:13:58.814Z,39.53
2023-05-05T18:16:25.864Z,39.38
2023-05-05T18:18:52.658Z,38.88
2023-05-05T18:21:19.421Z,38.56
2023-05-05T18:23:46.138Z,38.17
2023-05-05T18:26:12.751Z,38.60
2023-05-05T18:28:39.341Z,39.06
2023-05-05T18:31:06.299Z,38.82
2023-05-05T18:33:33.119Z,38.39
2023-05-05T18:35:59.724Z,37.79
2023-05-05T18:38:26.374Z,38.49
2023-05-05T18:40:53.057Z,38.04
2023-05-05T18:43:19.786Z,38.48
2023-05-05T18:45:46.493Z,39.45
2023-05-05T18:48:13.241Z,39.20
2023-05-05T18:50:39.877Z,39.08
2023-05-05T18:53:06.592Z,39.78
2023-05-05T18:55:33.411Z,39.82
2023-05-05T18:58:00.033Z,39.35
2023-05-05T19:00:26.668Z,40.01
2023-05-05T19:02:54.225Z,40.29
2023-05-05T19:05:21.062Z,40.69
2023-05-05T19:07:47.833Z,40.47
2023-05-05T19:10:14.437Z,40.39
2023-05-05T19:12:41.090Z,40.75
2023-05-05T19:15:08.452Z,40.80
2023-05-05T19:17:35.272Z,41.14
2023-05-05T19:20:02.090Z,41.20
2023-05-05T19:22:28.754Z,41.19
2023-05-05T19:24:55.418Z,41.00
2023-05-05T19:27:22.070Z,40.82
2023-05-05T19:29:52.803Z,43.21
2023-05-05T19:32:21.113Z,42.98
2023-05-05T19:34:48.061Z,41.85
2023-05-05T19:37:14.848Z,42.28
2023-05-05T19:39:44.343Z,42.27
2023-05-05T19:42:11.048Z,43.05
2023-05-05T19:44:37.716Z,42.60
2023-05-05T19:47:04.804Z,43.60
2023-05-05T19:49:31.573Z,43.41
2023-05-05T19:51:58.969Z,43.81
2023-05-05T19:54:25.783Z,43.45
2023-05-05T19:56:52.981Z,44.13
2023-05-05T19:59:20.427Z,44.25
2023-05-05T20:01:47.048Z,46.08
2023-05-05T20:04:13.744Z,45.54
2023-05-05T20:06:40.504Z,45.53
2023-05-05T20:09:07.348Z,45.04
2023-05-05T20:11:34.452Z,45.57
2023-05-05T20:14:01.532Z,46.17
2023-05-05T20:16:28.352Z,44.72
2023-05-05T20:18:55.024Z,46.38
2023-05-05T20:21:21.707Z,47.79
2023-05-05T20:23:48.400Z,50.05
2023-05-05T20:26:15.080Z,48.96
2023-05-05T20:28:45.281Z,48.24
2023-05-05T20:31:13.549Z,46.39
2023-05-05T20:33:40.225Z,46.15
2023-05-05T20:36:07.378Z,46.58
2023-05-05T20:38:34.051Z,46.56
2023-05-05T20:41:00.814Z,46.75
2023-05-05T20:43:27.578Z,47.28
2023-05-05T20:45:54.250Z,47.55
2023-05-05T20:48:21.014Z,49.15
2023-05-05T20:50:47.680Z,48.80
2023-05-05T20:53:15.020Z,49.71
2023-05-05T20:55:41.845Z,48.74
2023-05-05T20:58:08.513Z,49.44
2023-05-05T21:00:35.579Z,48.76
2023-05-05T21:03:05.365Z,49.02
2023-05-05T21:05:32.660Z,49.71
2023-05-05T21:08:00.837Z,49.36
2023-05-05T21:10:29.116Z,49.85
2023-05-05T21:12:56.036Z,50.60
2023-05-05T21:15:22.959Z,50.77
2023-05-05T21:17:49.706Z,52.63
2023-05-05T21:20:17.067Z,55.41
2023-05-05T21:22:43.772Z,57.97
2023-05-05T21:25:11.541Z,58.07
2023-05-05T21:27:38.248Z,59.97
2023-05-05T21:30:05.426Z,62.20
2023-05-05T21:32:32.142Z,63.85
2023-05-05T21:34:58.806Z,66.81
2023-05-05T21:37:25.441Z,68.88
2023-05-05T21:39:52.128Z,70.77
2023-05-05T21:42:19.921Z,72.56
2023-05-05T21:44:46.590Z,73.42
2023-05-05T21:47:13.188Z,73.62
2023-05-05T21:49:39.822Z,73.18
2023-05-05T21:52:06.474Z,74.18
2023-05-05T21:54:33.166Z,73.97
2023-05-05T21:57:00.345Z,74.50
2023-05-05T21:59:27.001Z,74.15
2023-05-05T22:01:53.799Z,76.07
2023-05-05T22:04:21.106Z,76.31
2023-05-05T22:06:47.735Z,75.58
2023-05-05T22:09:14.344Z,76.66
2023-05-05T22:11:41.037Z,78.42
2023-05-05T22:14:07.758Z,76.99
2023-05-05T22:16:34.445Z,77.73
2023-05-05T22:19:01.679Z,77.09
2023-05-05T22:21:28.352Z,76.37
2023-05-05T22:23:54.961Z,74.93
2023-05-05T22:26:21.578Z,73.92
2023-05-05T22:28:48.646Z,71.46
2023-05-05T22:31:16.511Z,71.44
2023-05-05T22:33:43.792Z,69.38
2023-05-05T22:36:11.552Z,69.53
2023-05-05T22:38:38.222Z,73.47
2023-05-05T22:41:06.656Z,76.55
2023-05-05T22:43:33.318Z,78.22
2023-05-05T22:45:59.958Z,78.20
2023-05-05T22:48:26.854Z,78.38
2023-05-05T22:50:53.677Z,79.46
2023-05-05T22:53:20.306Z,80.11
2023-05-05T22:55:46.948Z,81.40
2023-05-05T22:58:13.596Z,80.48
2023-05-05T23:00:40.227Z,78.12
2023-05-05T23:03:06.855Z,76.95
2023-05-05T23:05:34.533Z,76.07
2023-05-05T23:08:01.540Z,74.94
2023-05-05T23:10:29.238Z,76.92
2023-05-05T23:12:55.882Z,77.56
2023-05-05T23:15:22.904Z,76.14
2023-05-05T23:17:49.614Z,75.15
2023-05-05T23:20:16.347Z,74.76
2023-05-05T23:22:42.938Z,73.94
2023-05-05T23:25:09.876Z,75.18
2023-05-05T23:27:40.059Z,75.08
2023-05-05T23:30:11.168Z,73.81
2023-05-05T23:32:37.997Z,74.28
2023-05-05T23:35:05.160Z,74.47
2023-05-05T23:37:31.781Z,72.49
2023-05-05T23:39:58.477Z,72.48
2023-05-05T23:42:25.324Z,70.06
2023-05-05T23:44:52.014Z,69.51
2023-05-05T23:47:18.657Z,69.72
2023-05-05T23:49:45.258Z,69.80
2023-05-05T23:52:13.136Z,69.81
2023-05-05T23:54:40.175Z,68.19
2023-05-05T23:57:06.815Z,67.76
2023-05-05T23:59:33.404Z,67.52
